Time;durP1;ratioP1;P1;durP2;ratioP2;P2;SDS_P1;SDS_P2;PMS_P1;PMS_P2;Temp;Humidity;BMP_temperature;BMP_pressure;BME280_temperature;BME280_humidity;BME280_pressure;Samples;Min_cycle;Max_cycle;Signal;HPM_P1;HPM_P2
2023/08/05 08:16:20;;;;;;;;;;;;;;;;;;;;;
2023/08/05 08:50:23;;;;;;;10.47;5.57;;;18.90;99.90;;;;;;6282027;22;20217;-85
2023/08/05 11:50:11;;;;;;;6.57;3.90;;;20.50;99.90;;;;;;6240542;22;20214;-84
2023/08/05 11:59:25;;;;;;;;;;;;;;;;;;;;;
2023/08/05 12:03:26;;;;;;;5.97;3.63;;;20.50;99.90;;;;;;6222789;23;20194;-84
2023/08/05 12:09:38;;;;;;;5.43;3.80;;;21.00;99.90;;;;;;6246871;22;20237;-85
2023/08/05 12:22:09;;;;;;;5.87;3.30;;;21.60;99.90;;;;;;6221540;23;20166;-83
2023/08/05 12:24:36;;;;;;;7.30;3.77;;;21.60;99.90;;;;;;6074557;23;20173;-82
2023/08/05 12:27:06;;;;;;;5.00;3.27;;;21.60;99.90;;;;;;6074100;23;20185;-82
2023/08/05 12:29:37;;;;;;;5.70;3.47;;;21.70;99.90;;;;;;6098416;23;20182;-86
2023/08/05 12:32:09;;;;;;;5.80;3.33;;;21.70;99.90;;;;;;6074325;23;20185;-83
2023/08/05 12:34:59;;;;;;;6.70;3.47;;;21.70;99.90;;;;;;6074464;23;20356;-83
2023/08/05 12:38:27;;;;;;;4.40;3.30;;;21.80;99.90;;;;;;6146287;22;20487;-85
2023/08/05 12:46:04;;;;;;;6.17;3.20;;;21.60;99.90;;;;;;6063411;22;20163;31
2023/08/05 12:48:36;;;;;;;5.57;3.20;;;21.70;99.90;;;;;;6267773;22;20197;-83
2023/08/05 19:19:57;;;;;;;18.33;11.03;;;19.70;99.90;;;;;;6233343;22;20206;-84
2023/08/05 19:22:25;;;;;;;19.00;11.07;;;19.70;99.90;;;;;;6198111;23;20190;-82
2023/08/05 19:24:53;;;;;;;26.87;12.97;;;19.70;99.90;;;;;;6222820;23;20198;-82
2023/08/05 19:27:24;;;;;;;19.57;11.63;;;19.70;99.90;;;;;;6222815;23;20191;-83
2023/08/05 19:29:57;;;;;;;23.73;11.77;;;19.60;99.90;;;;;;6223065;23;20233;-81
2023/08/05 19:32:24;;;;;;;21.20;11.80;;;19.60;99.90;;;;;;6222281;23;20190;-82
2023/08/05 19:34:52;;;;;;;21.43;12.23;;;19.60;99.90;;;;;;6222404;23;20176;-83
2023/08/05 19:37:19;;;;;;;23.57;12.30;;;19.60;99.90;;;;;;6222205;23;20193;-81
2023/08/05 19:39:51;;;;;;;21.77;12.40;;;19.60;99.90;;;;;;6248897;23;20158;-82
2023/08/05 19:42:18;;;;;;;21.63;11.90;;;19.70;99.90;;;;;;6222250;23;20186;-83
2023/08/05 19:44:46;;;;;;;23.10;12.43;;;19.70;99.90;;;;;;6248908;23;20162;-81
2023/08/05 19:47:13;;;;;;;19.20;11.33;;;19.70;99.90;;;;;;6249025;22;20466;-82
2023/08/05 19:49:41;;;;;;;21.00;11.27;;;19.70;99.90;;;;;;6222287;23;20208;-81
2023/08/05 19:52:08;;;;;;;23.10;12.57;;;19.70;99.90;;;;;;6222102;23;20182;-83
2023/08/05 19:54:34;;;;;;;22.27;13.23;;;19.70;99.90;;;;;;6222242;23;20177;-82
2023/08/05 19:57:02;;;;;;;26.70;13.37;;;19.70;99.90;;;;;;6222305;22;20190;-81
2023/08/05 19:59:29;;;;;;;25.07;13.27;;;19.70;99.90;;;;;;6222734;23;20170;-82
2023/08/05 20:01:56;;;;;;;25.90;12.70;;;19.50;99.90;;;;;;6249089;22;20600;-84
2023/08/05 20:04:27;;;;;;;20.63;12.40;;;19.50;99.90;;;;;;6222440;23;20198;-82
2023/08/05 20:06:55;;;;;;;24.03;13.13;;;19.50;99.90;;;;;;6197017;22;20170;-82
2023/08/05 20:09:22;;;;;;;22.80;13.20;;;19.60;99.90;;;;;;6222625;23;20563;-82
2023/08/05 20:12:05;;;;;;;27.67;13.37;;;19.60;99.90;;;;;;6221298;22;20170;-83
2023/08/05 20:20:04;;;;;;;25.23;13.40;;;19.60;99.90;;;;;;6244726;22;20472;-82
2023/08/05 20:22:58;;;;;;;28.10;13.93;;;19.50;99.90;;;;;;6106645;23;20634;-85
2023/08/05 20:26:42;;;;;;;26.93;13.60;;;19.60;99.90;;;;;;6130723;23;20260;-85
2023/08/05 20:29:32;;;;;;;25.37;13.63;;;19.40;99.90;;;;;;5930361;24;20178;-84
2023/08/05 20:33:19;;;;;;;24.97;14.13;;;19.50;99.90;;;;;;5933354;24;20327;-84
2023/08/05 20:36:14;;;;;;;31.30;14.57;;;19.50;99.90;;;;;;6238722;22;20257;-84
2023/08/05 20:47:58;;;;;;;27.60;14.37;;;19.40;99.90;;;;;;6241131;22;20209;-82
2023/08/05 20:50:31;;;;;;;29.10;14.40;;;19.60;99.90;;;;;;6223037;23;20220;-81
2023/08/05 20:58:40;;;;;;;24.80;14.07;;;19.70;99.90;;;;;;6244527;22;20548;-82
2023/08/05 21:01:23;;;;;;;28.97;13.70;;;19.60;99.90;;;;;;6199979;23;20167;-82
2023/08/05 21:03:51;;;;;;;27.90;14.23;;;19.60;99.90;;;;;;6196895;23;20573;-81
2023/08/05 21:06:28;;;;;;;24.93;14.53;;;19.60;99.90;;;;;;6222053;23;20197;-81
2023/08/05 21:20:13;;;;;;;28.07;15.33;;;19.70;99.90;;;;;;6246800;22;20214;-82
2023/08/05 21:22:39;;;;;;;27.03;15.17;;;19.70;99.90;;;;;;6223510;23;20190;-78
2023/08/05 21:25:07;;;;;;;30.43;16.10;;;19.70;99.90;;;;;;6223385;23;20545;-80
2023/08/05 21:27:34;;;;;;;27.37;15.30;;;19.60;99.90;;;;;;6223837;23;20194;-80
2023/08/05 21:30:03;;;;;;;27.10;15.77;;;19.60;99.90;;;;;;6249930;23;20166;-79
2023/08/05 21:32:30;;;;;;;33.27;16.77;;;19.60;99.90;;;;;;6223105;23;20186;-79
2023/08/05 23:01:12;;;;;;;40.50;20.33;;;19.30;99.90;;;;;;6232877;22;20609;-83
